Time;durP1;ratioP1;P1;durP2;ratioP2;P2;SDS_P1;SDS_P2;PMS_P1;PMS_P2;Temp;Humidity;BMP_temperature;BMP_pressure;BME280_temperature;BME280_humidity;BME280_pressure;Samples;Min_cycle;Max_cycle;Signal;HPM_P1;HPM_P2
2024/03/15 00:00:09;;;;;;;12.50;8.20;;;8.60;99.90;8.50;100164.00;;;;4880324;28;87682;-64
2024/03/15 00:02:35;;;;;;;13.23;9.50;;;8.60;99.90;8.40;100161.00;;;;4880394;28;88590;-63
2024/03/15 00:05:01;;;;;;;13.37;8.70;;;8.60;99.90;8.40;100158.00;;;;4879923;28;109075;-63
2024/03/15 00:07:27;;;;;;;12.43;9.53;;;8.50;99.90;8.40;100160.00;;;;4879575;28;88145;-63
2024/03/15 00:09:52;;;;;;;11.50;9.00;;;8.50;99.90;8.30;100154.00;;;;4877874;28;112363;-64
2024/03/15 00:12:18;;;;;;;14.97;9.93;;;8.50;99.90;8.30;100152.00;;;;4876388;28;109919;-64
2024/03/15 00:14:44;;;;;;;11.20;8.37;;;8.60;99.90;8.30;100154.00;;;;4881146;28;87806;-64
2024/03/15 00:17:11;;;;;;;14.80;8.93;;;8.50;99.90;8.30;100142.00;;;;4880768;28;88375;-65
2024/03/15 00:19:37;;;;;;;15.50;9.93;;;8.40;99.90;8.30;100144.00;;;;4876412;28;88571;-64
2024/03/15 00:22:03;;;;;;;15.57;9.07;;;8.40;99.90;8.20;100149.00;;;;4881890;28;87779;-64
2024/03/15 00:24:28;;;;;;;11.77;9.07;;;8.40;99.90;8.20;100137.00;;;;4879309;28;87988;-64
2024/03/15 00:26:55;;;;;;;9.23;7.63;;;8.30;99.90;8.20;100128.00;;;;4876598;28;105469;-64
2024/03/15 00:29:20;;;;;;;12.23;7.87;;;8.30;99.90;8.20;100134.00;;;;4882827;28;88774;-64
2024/03/15 00:31:47;;;;;;;13.80;8.70;;;8.30;99.90;8.10;100133.00;;;;4883100;28;101012;-64
2024/03/15 00:34:13;;;;;;;19.67;10.93;;;8.70;99.90;8.10;100129.00;;;;4881038;28;100032;-64
2024/03/15 00:36:41;;;;;;;15.67;8.10;;;8.30;99.90;8.10;100123.00;;;;4881137;28;88927;-65
2024/03/15 00:39:07;;;;;;;12.57;9.50;;;8.20;99.90;8.10;100120.00;;;;4880627;28;88439;-63
2024/03/15 00:41:32;;;;;;;15.20;8.83;;;8.20;99.90;8.10;100125.00;;;;4878754;28;111852;-63
2024/03/15 00:43:58;;;;;;;13.07;8.40;;;8.20;99.90;8.10;100123.00;;;;4879486;28;88478;-64
2024/03/15 00:46:24;;;;;;;11.73;8.27;;;8.20;99.90;8.10;100110.00;;;;4882703;28;115825;-64
2024/03/15 00:48:53;;;;;;;12.60;8.60;;;8.20;99.90;8.10;100111.00;;;;4877157;28;89004;-64
2024/03/15 00:51:19;;;;;;;13.00;8.27;;;8.20;99.90;8.00;100106.00;;;;4882321;28;88008;-65
2024/03/15 00:53:45;;;;;;;13.27;8.27;;;8.20;99.90;8.00;100110.00;;;;4881616;28;99814;-64
2024/03/15 00:56:11;;;;;;;14.20;9.97;;;8.20;99.90;8.00;100107.00;;;;4878460;28;88916;-64
2024/03/15 00:58:37;;;;;;;14.83;8.40;;;8.10;99.90;8.00;100107.00;;;;4876881;28;88107;-64
2024/03/15 01:01:06;;;;;;;10.63;8.57;;;8.10;99.90;8.00;100103.00;;;;4875424;28;88743;-64
2024/03/15 01:03:32;;;;;;;16.63;10.90;;;8.20;99.90;8.00;100099.00;;;;4880993;28;88022;-64
2024/03/15 01:05:58;;;;;;;13.10;8.87;;;8.10;99.90;8.00;100110.00;;;;4877150;28;97289;-64
2024/03/15 01:08:24;;;;;;;14.70;9.50;;;8.20;99.90;8.10;100101.00;;;;4878534;28;87883;-64
2024/03/15 01:10:50;;;;;;;13.67;8.60;;;8.20;99.90;8.10;100094.00;;;;4878453;28;104591;-64
2024/03/15 01:13:17;;;;;;;13.00;9.63;;;8.20;99.90;8.10;100096.00;;;;4879776;28;87858;-64
2024/03/15 01:15:44;;;;;;;12.63;8.17;;;8.20;99.90;8.10;100093.00;;;;4881011;28;88138;-64
2024/03/15 01:18:10;;;;;;;12.33;9.60;;;8.20;99.90;8.10;100096.00;;;;4877292;28;97300;-64
2024/03/15 01:20:35;;;;;;;15.30;9.30;;;8.30;99.90;8.10;100079.00;;;;4877042;28;94359;-64
2024/03/15 01:23:02;;;;;;;11.00;8.87;;;8.20;99.90;8.10;100076.00;;;;4877086;28;88022;-64
2024/03/15 01:25:29;;;;;;;13.20;9.73;;;8.30;99.90;8.20;100075.00;;;;4879927;28;89724;-64
2024/03/15 01:27:57;;;;;;;12.27;8.43;;;8.30;99.90;8.10;100076.00;;;;4880399;28;89790;-64
2024/03/15 01:30:23;;;;;;;16.03;9.73;;;8.30;99.90;8.20;100078.00;;;;4881219;28;87855;-64
2024/03/15 01:32:50;;;;;;;18.00;9.50;;;8.30;99.90;8.20;100073.00;;;;4880775;28;101925;-64
2024/03/15 01:35:16;;;;;;;15.57;9.23;;;8.30;99.90;8.20;100073.00;;;;4879222;28;88501;-64
2024/03/15 01:37:43;;;;;;;11.70;8.37;;;8.30;99.90;8.20;100074.00;;;;4879998;28;88888;-64
2024/03/15 01:40:10;;;;;;;13.23;8.70;;;8.30;99.90;8.30;100073.00;;;;4875038;28;103910;-64
2024/03/15 01:42:36;;;;;;;15.43;8.80;;;8.40;99.90;8.30;100068.00;;;;4879602;28;87299;-63
2024/03/15 01:45:04;;;;;;;12.80;8.03;;;8.40;99.90;8.30;100070.00;;;;4881366;28;93351;-64
2024/03/15 01:47:30;;;;;;;12.53;7.60;;;8.40;99.90;8.30;100078.00;;;;4874088;28;88369;-64
2024/03/15 01:49:58;;;;;;;14.80;8.93;;;8.40;99.90;8.30;100062.00;;;;4878806;28;110211;-64
2024/03/15 01:52:25;;;;;;;15.77;8.27;;;8.40;99.90;8.30;100063.00;;;;4876025;28;96079;-64
2024/03/15 01:54:51;;;;;;;13.47;7.97;;;8.40;99.90;8.30;100065.00;;;;4878074;28;93881;-64
2024/03/15 01:57:18;;;;;;;19.60;9.93;;;8.40;99.90;8.30;100059.00;;;;4881831;28;88573;-64
2024/03/15 01:59:47;;;;;;;11.90;7.70;;;8.40;99.90;8.30;100062.00;;;;4875081;28;87982;-64
2024/03/15 02:02:13;;;;;;;11.77;8.10;;;8.40;99.90;8.30;100063.00;;;;4881962;28;108698;-65
2024/03/15 02:04:53;;;;;;;16.23;9.10;;;8.40;99.90;8.20;100058.00;;;;4879760;28;99756;-64
2024/03/15 02:07:27;;;;;;;7.90;6.93;;;8.40;99.90;8.20;100054.00;;;;4882321;28;87798;-64
2024/03/15 02:09:54;;;;;;;11.70;8.20;;;8.40;99.90;8.20;100065.00;;;;4879277;28;87891;-64
2024/03/15 02:12:20;;;;;;;13.87;8.23;;;8.40;99.90;8.20;100059.00;;;;4879149;28;88114;-64
2024/03/15 02:14:48;;;;;;;11.70;7.23;;;8.40;99.90;8.20;100057.00;;;;4873165;28;119196;-64
2024/03/15 02:17:17;;;;;;;10.17;7.90;;;8.30;99.90;8.20;100055.00;;;;4880458;28;89610;-64
2024/03/15 02:19:47;;;;;;;13.80;8.30;;;8.30;99.90;8.20;100048.00;;;;4884305;28;102418;-64
2024/03/15 02:22:13;;;;;;;14.20;9.07;;;8.30;99.90;8.20;100042.00;;;;4876116;28;88051;-65
2024/03/15 02:24:40;;;;;;;12.57;8.03;;;8.30;99.90;8.20;100048.00;;;;4880905;28;116289;-64
2024/03/15 02:27:13;;;;;;;11.13;7.67;;;8.30;99.90;8.20;100051.00;;;;4879607;28;88674;-64
2024/03/15 02:29:40;;;;;;;11.17;7.83;;;8.30;99.90;8.20;100039.00;;;;4877414;28;87840;-64
2024/03/15 02:32:06;;;;;;;12.43;8.40;;;8.30;99.90;8.20;100045.00;;;;4876224;28;87152;-64
2024/03/15 02:34:34;;;;;;;12.17;7.33;;;8.30;99.90;8.20;100044.00;;;;4880260;28;98382;-64
2024/03/15 02:37:01;;;;;;;13.90;7.60;;;8.30;99.90;8.30;100040.00;;;;4878767;28;88477;-64
2024/03/15 02:39:26;;;;;;;10.83;7.50;;;8.40;99.90;8.30;100042.00;;;;4879302;28;88931;-64
2024/03/15 02:41:53;;;;;;;15.53;8.43;;;8.40;99.90;8.30;100042.00;;;;4873713;28;108711;-64
2024/03/15 02:44:19;;;;;;;12.63;7.33;;;8.40;99.90;8.30;100045.00;;;;4883080;28;116390;-64
2024/03/15 02:46:45;;;;;;;13.37;7.20;;;8.40;99.90;8.40;100042.00;;;;4877999;28;117324;-64
2024/03/15 02:49:11;;;;;;;13.23;7.40;;;8.60;99.90;8.40;100034.00;;;;4877234;28;88305;-64
2024/03/15 02:51:37;;;;;;;13.30;8.17;;;8.40;99.90;8.40;100035.00;;;;4878948;28;98339;-65
2024/03/15 02:54:02;;;;;;;6.83;6.13;;;8.50;99.90;8.40;100041.00;;;;4877752;28;117384;-63
2024/03/15 02:56:28;;;;;;;9.27;6.73;;;8.50;99.90;8.40;100032.00;;;;4876200;28;103977;-64
2024/03/15 02:58:54;;;;;;;10.30;5.97;;;8.50;99.90;8.40;100030.00;;;;4880945;28;107224;-63
2024/03/15 03:01:20;;;;;;;12.33;7.50;;;8.50;99.90;8.40;100038.00;;;;4875584;28;108704;-64
2024/03/15 03:03:45;;;;;;;12.80;7.50;;;8.50;99.90;8.40;100038.00;;;;4879433;28;91201;-63
2024/03/15 03:06:11;;;;;;;9.93;7.37;;;8.50;99.90;8.40;100038.00;;;;4884548;28;118570;-63
2024/03/15 03:08:37;;;;;;;9.13;5.80;;;8.50;99.90;8.30;100039.00;;;;4887003;28;108102;-64
2024/03/15 03:11:06;;;;;;;10.23;7.40;;;8.50;99.90;8.30;100039.00;;;;4880651;28;107979;-64
2024/03/15 03:13:36;;;;;;;9.50;5.53;;;8.50;99.90;8.30;100039.00;;;;4881717;28;88341;-64
2024/03/15 03:16:02;;;;;;;10.67;6.63;;;8.40;99.90;8.30;100034.00;;;;4881189;28;89310;-64
2024/03/15 03:18:28;;;;;;;11.23;6.50;;;8.40;99.90;8.20;100037.00;;;;4886597;28;91202;-64
2024/03/15 03:20:55;;;;;;;9.57;6.43;;;8.40;99.90;8.20;100035.00;;;;4887324;28;100751;-65
2024/03/15 03:23:22;;;;;;;9.77;6.53;;;8.30;99.90;8.20;100035.00;;;;4883817;28;87769;-63
2024/03/15 03:25:48;;;;;;;10.27;5.93;;;8.30;99.90;8.20;100028.00;;;;4881491;28;88329;-63
2024/03/15 03:28:14;;;;;;;8.77;6.53;;;8.30;99.90;8.20;100034.00;;;;4878064;28;100186;-63
2024/03/15 03:30:41;;;;;;;8.33;6.33;;;8.50;99.90;8.10;100034.00;;;;4880865;28;88114;-63
2024/03/15 03:33:07;;;;;;;7.73;5.67;;;8.30;99.90;8.10;100032.00;;;;4883246;28;88346;-63
2024/03/15 03:35:32;;;;;;;9.37;5.73;;;8.30;99.90;8.10;100038.00;;;;4882602;28;88995;-63
2024/03/15 03:37:58;;;;;;;11.93;6.67;;;8.30;99.90;8.10;100034.00;;;;4881859;28;103645;-63
2024/03/15 03:40:24;;;;;;;7.93;5.30;;;8.20;99.90;8.10;100037.00;;;;4880499;28;105462;-63
2024/03/15 03:42:51;;;;;;;9.47;6.53;;;8.20;99.90;8.00;100037.00;;;;4880298;28;88708;-63
2024/03/15 03:45:17;;;;;;;9.33;6.07;;;8.20;99.90;8.00;100043.00;;;;4881586;28;99534;-63
2024/03/15 03:47:49;;;;;;;19.30;6.43;;;8.10;99.90;8.00;100031.00;;;;4881487;28;87749;-64
2024/03/15 03:50:15;;;;;;;9.57;6.97;;;8.10;99.90;7.90;100033.00;;;;4879838;28;87721;-64
2024/03/15 03:52:41;;;;;;;7.60;5.57;;;8.10;99.90;7.90;100031.00;;;;4882529;28;89404;-63
2024/03/15 03:55:07;;;;;;;6.67;4.83;;;8.10;99.90;7.90;100021.00;;;;4883888;28;88435;-63
2024/03/15 03:57:43;;;;;;;7.60;5.53;;;8.00;99.90;7.80;100022.00;;;;4878524;28;87700;-64
2024/03/15 04:00:14;;;;;;;8.87;5.50;;;8.00;99.90;7.80;100021.00;;;;4882770;28;88096;-63
2024/03/15 04:02:43;;;;;;;9.47;4.97;;;7.90;99.90;7.70;100016.00;;;;4880456;28;87861;-64
2024/03/15 04:05:09;;;;;;;9.77;6.07;;;7.90;99.90;7.70;100021.00;;;;4884830;28;87820;-63
2024/03/15 04:07:35;;;;;;;10.57;6.97;;;7.90;99.90;7.60;100022.00;;;;4881014;28;109972;-64
2024/03/15 04:10:00;;;;;;;8.17;5.47;;;7.90;99.90;7.60;100019.00;;;;4879929;28;108779;-63
2024/03/15 04:12:27;;;;;;;6.43;5.23;;;7.80;99.90;7.50;100024.00;;;;4880362;28;110910;-63
2024/03/15 04:14:56;;;;;;;9.37;5.53;;;7.70;99.90;7.50;100022.00;;;;4883023;28;88514;-64
2024/03/15 04:17:23;;;;;;;8.07;5.77;;;7.60;99.90;7.50;100016.00;;;;4877300;28;109909;-64
2024/03/15 04:19:49;;;;;;;10.30;6.40;;;7.60;99.90;7.40;100020.00;;;;4878687;28;88710;-64
2024/03/15 04:22:16;;;;;;;5.93;4.57;;;7.60;99.90;7.30;100018.00;;;;4881107;28;116866;-63
2024/03/15 04:24:43;;;;;;;9.37;5.37;;;7.50;99.90;7.30;100010.00;;;;4879282;28;88593;-63
2024/03/15 04:27:09;;;;;;;6.93;5.50;;;7.50;99.90;7.20;100014.00;;;;4878884;28;87998;-64
2024/03/15 04:29:36;;;;;;;10.83;6.57;;;7.40;99.90;7.20;100008.00;;;;4884109;28;87719;-63
2024/03/15 04:32:08;;;;;;;6.63;5.13;;;7.30;99.90;7.10;100010.00;;;;4880818;28;96594;-64
2024/03/15 04:34:37;;;;;;;6.67;5.97;;;7.30;99.90;7.00;100011.00;;;;4882311;28;87605;-63
2024/03/15 04:37:04;;;;;;;9.23;5.97;;;7.20;99.90;7.00;100003.00;;;;4870282;28;88863;-63
2024/03/15 04:39:31;;;;;;;8.87;6.77;;;7.50;99.90;6.90;100004.00;;;;4879104;28;87845;-63
2024/03/15 04:41:57;;;;;;;10.63;5.90;;;7.10;99.90;6.90;100013.00;;;;4883708;28;90136;-63
2024/03/15 04:44:22;;;;;;;11.23;7.97;;;7.10;99.90;6.80;100002.00;;;;4884390;28;89219;-63
2024/03/15 04:46:49;;;;;;;10.10;6.77;;;7.00;99.90;6.80;99996.00;;;;4875037;28;88080;-63
2024/03/15 04:49:17;;;;;;;10.37;5.97;;;7.20;99.90;6.70;100000.00;;;;4881635;28;110412;-63
2024/03/15 04:51:43;;;;;;;6.10;4.70;;;6.90;99.90;6.70;100003.00;;;;4878960;28;89252;-63
2024/03/15 04:54:09;;;;;;;9.73;5.93;;;7.40;99.90;6.70;100003.00;;;;4883671;28;88561;-63
2024/03/15 04:56:35;;;;;;;6.80;5.63;;;6.80;99.90;6.60;99996.00;;;;4884708;28;87652;-62
2024/03/15 04:59:01;;;;;;;10.17;5.90;;;6.80;99.90;6.60;99999.00;;;;4880513;28;87331;-63
2024/03/15 05:01:27;;;;;;;8.43;6.33;;;7.30;99.90;6.60;100001.00;;;;4880747;28;88088;-63
2024/03/15 05:03:57;;;;;;;6.47;4.53;;;6.80;99.90;6.60;99994.00;;;;4882615;28;118785;-62
2024/03/15 05:06:25;;;;;;;12.30;5.73;;;7.20;99.90;6.60;99993.00;;;;4882372;28;110133;-63
2024/03/15 05:08:50;;;;;;;8.37;6.33;;;6.70;99.90;6.50;99994.00;;;;4880084;28;89390;-63
2024/03/15 05:11:17;;;;;;;7.07;6.23;;;7.00;99.90;6.50;99987.00;;;;4882011;28;116584;-63
2024/03/15 05:13:43;;;;;;;11.53;6.70;;;6.70;99.90;6.50;99987.00;;;;4878621;28;88522;-63
2024/03/15 05:16:12;;;;;;;7.77;5.60;;;6.80;99.90;6.50;99997.00;;;;4878407;28;87604;-63
2024/03/15 05:18:40;;;;;;;9.77;6.57;;;6.70;99.90;6.50;99996.00;;;;4878623;28;87779;-63
2024/03/15 05:21:06;;;;;;;9.00;5.67;;;6.70;99.90;6.60;99998.00;;;;4873477;28;89528;-63
2024/03/15 05:23:31;;;;;;;7.53;6.00;;;7.20;99.90;6.60;99992.00;;;;4878473;28;108928;-63
2024/03/15 05:25:57;;;;;;;7.83;6.17;;;7.20;99.90;6.60;99995.00;;;;4873418;28;104152;-63
2024/03/15 05:28:23;;;;;;;12.43;6.70;;;6.80;99.90;6.70;99993.00;;;;4875079;28;108312;-63
2024/03/15 05:30:48;;;;;;;7.23;6.37;;;6.80;99.90;6.70;99996.00;;;;4873909;28;118563;-63
2024/03/15 05:33:14;;;;;;;8.13;5.57;;;6.80;99.90;6.70;99980.00;;;;4873848;28;118090;-63
2024/03/15 05:35:41;;;;;;;8.60;5.70;;;6.90;99.90;6.70;99996.00;;;;4876259;28;110640;-63
2024/03/15 05:38:09;;;;;;;7.80;5.37;;;6.80;99.90;6.70;99988.00;;;;4876149;28;108132;-64
2024/03/15 05:40:35;;;;;;;7.47;5.00;;;6.90;99.90;6.70;99986.00;;;;4874611;28;89234;-63
2024/03/15 05:43:01;;;;;;;7.53;5.37;;;6.90;99.90;6.70;99997.00;;;;4870542;28;116498;-62
2024/03/15 05:45:26;;;;;;;8.60;5.80;;;6.90;99.90;6.80;99996.00;;;;4876669;28;87759;-63
2024/03/15 05:47:52;;;;;;;8.63;6.73;;;7.50;99.90;6.80;99990.00;;;;4874886;28;87287;-63
2024/03/15 05:50:20;;;;;;;10.93;6.83;;;7.60;99.90;6.90;99998.00;;;;4874732;28;116624;-63
2024/03/15 05:52:46;;;;;;;8.67;5.13;;;6.90;99.90;7.00;99990.00;;;;4879553;28;87799;-64
2024/03/15 05:55:13;;;;;;;12.23;7.07;;;7.10;99.90;7.00;99988.00;;;;4873359;28;88678;-63
2024/03/15 05:57:39;;;;;;;6.73;5.47;;;7.10;99.90;7.10;100000.00;;;;4879488;28;88021;-64
2024/03/15 06:00:19;;;;;;;6.47;5.23;;;7.60;99.90;7.20;100003.00;;;;4880300;28;87742;-63
2024/03/15 06:02:45;;;;;;;10.87;6.53;;;7.30;99.90;7.20;99998.00;;;;4879518;28;88783;-63
2024/03/15 06:05:10;;;;;;;9.83;6.27;;;7.30;99.90;7.30;99995.00;;;;4879485;28;110300;-63
2024/03/15 06:07:36;;;;;;;5.77;5.27;;;7.40;99.90;7.30;100001.00;;;;4878713;28;93891;-63
2024/03/15 06:10:02;;;;;;;6.63;5.20;;;8.00;99.90;7.30;100003.00;;;;4878652;28;116057;-63
2024/03/15 06:12:28;;;;;;;6.70;6.00;;;7.50;99.90;7.30;99999.00;;;;4881895;28;88799;-63
2024/03/15 06:14:54;;;;;;;6.50;4.77;;;7.50;99.90;7.40;99989.00;;;;4878329;28;87967;-62
2024/03/15 06:17:20;;;;;;;9.67;5.80;;;7.60;99.90;7.40;99991.00;;;;4878673;28;108978;-63
2024/03/15 06:19:48;;;;;;;7.93;5.97;;;7.50;99.90;7.50;100001.00;;;;4881940;28;89302;-63
2024/03/15 06:22:13;;;;;;;7.10;5.47;;;7.50;99.90;7.50;99995.00;;;;4878713;28;89642;-64
2024/03/15 06:24:39;;;;;;;6.83;5.30;;;7.70;99.90;7.60;100002.00;;;;4879599;28;109362;-63
2024/03/15 06:27:13;;;;;;;6.00;5.13;;;7.70;99.90;7.70;99996.00;;;;4876057;28;109722;-63
2024/03/15 06:29:43;;;;;;;9.67;6.77;;;7.70;99.90;7.80;99995.00;;;;4881103;28;88344;-63
2024/03/15 06:32:14;;;;;;;7.77;5.90;;;7.80;99.90;7.90;99999.00;;;;4881488;28;88464;-63
2024/03/15 06:34:40;;;;;;;13.63;6.60;;;8.00;99.90;8.10;99993.00;;;;4879742;28;87888;-62
2024/03/15 06:37:06;;;;;;;7.47;5.83;;;8.20;99.90;8.30;100009.00;;;;4884293;28;109315;-64
2024/03/15 06:42:20;;;;;;;9.37;5.60;;;8.50;99.90;8.70;99994.00;;;;4880769;28;88095;-64
2024/03/15 06:44:50;;;;;;;9.27;6.03;;;8.70;99.90;8.90;99997.00;;;;4880816;28;88858;-64
2024/03/15 06:47:17;;;;;;;9.03;6.43;;;8.90;99.90;9.10;99996.00;;;;4883223;28;88110;-64
2024/03/15 06:50:06;;;;;;;10.70;5.00;;;9.20;99.90;9.30;100000.00;;;;4883195;28;89003;-63
2024/03/15 06:52:35;;;;;;;10.20;5.83;;;9.30;99.90;9.60;100007.00;;;;4880834;28;88549;-65
2024/03/15 06:55:06;;;;;;;13.60;5.73;;;9.60;99.90;9.80;100003.00;;;;4877931;28;88998;-64
2024/03/15 06:57:33;;;;;;;7.60;4.67;;;9.80;99.90;10.00;99997.00;;;;4878818;28;88005;-64
2024/03/15 07:00:03;;;;;;;9.57;5.27;;;10.00;99.90;10.20;99998.00;;;;4878464;28;87997;-64
2024/03/15 07:02:30;;;;;;;4.97;4.10;;;10.20;99.90;10.40;100002.00;;;;4876295;28;88801;-64
2024/03/15 07:04:55;;;;;;;9.13;4.80;;;10.40;99.90;10.50;100003.00;;;;4874986;28;88017;-64
2024/03/15 07:07:22;;;;;;;8.50;4.37;;;10.50;99.90;10.70;100013.00;;;;4878772;28;108518;-64
2024/03/15 07:09:47;;;;;;;7.13;4.03;;;10.70;99.90;10.80;100004.00;;;;4878160;28;89672;-64
2024/03/15 07:12:16;;;;;;;5.60;3.87;;;10.80;99.90;11.00;100014.00;;;;4874153;28;88614;-64
2024/03/15 07:14:42;;;;;;;8.80;4.27;;;11.00;99.90;11.20;100005.00;;;;4879870;28;92357;-64
2024/03/15 07:17:12;;;;;;;6.57;4.53;;;11.20;99.90;11.50;100013.00;;;;4877006;28;87953;-64
2024/03/15 07:19:38;;;;;;;8.43;4.73;;;11.40;99.90;11.70;100015.00;;;;4881690;28;89063;-65
2024/03/15 07:22:04;;;;;;;6.20;3.60;;;11.60;99.90;12.00;100013.00;;;;4877486;28;88049;-63
2024/03/15 07:24:31;;;;;;;3.87;3.47;;;11.90;99.90;12.30;100009.00;;;;4880823;28;88035;-65
2024/03/15 07:26:57;;;;;;;7.67;4.53;;;12.20;99.90;12.50;100019.00;;;;4878333;28;87133;-64
2024/03/15 07:29:22;;;;;;;5.63;3.43;;;12.40;99.90;12.80;100014.00;;;;4878153;28;89175;-64
2024/03/15 07:31:49;;;;;;;5.27;3.23;;;12.70;99.90;13.10;100024.00;;;;4877355;28;88849;-64
2024/03/15 07:34:16;;;;;;;5.93;3.33;;;13.00;99.90;13.40;100024.00;;;;4876989;28;88762;-64
2024/03/15 07:36:41;;;;;;;5.13;3.87;;;13.30;99.90;13.70;100018.00;;;;4875991;28;87875;-62
2024/03/15 07:39:08;;;;;;;6.63;3.50;;;13.50;99.90;14.00;100016.00;;;;4876162;28;111005;-63
2024/03/15 07:41:34;;;;;;;6.82;3.28;;;13.90;99.90;14.30;100018.00;;;;4879391;28;88571;-64
2024/03/15 07:44:00;;;;;;;4.20;3.13;;;14.10;99.90;14.50;100027.00;;;;4876335;28;88031;-65
2024/03/15 07:46:27;;;;;;;4.68;2.72;;;14.40;99.90;14.80;100020.00;;;;4877154;28;89931;-61
2024/03/15 07:48:53;;;;;;;4.50;3.20;;;14.70;99.90;15.00;100024.00;;;;4877799;28;90693;-64
2024/03/15 07:51:18;;;;;;;3.22;2.42;;;14.90;99.90;15.10;100019.00;;;;4884001;28;116841;-64
2024/03/15 07:53:45;;;;;;;3.78;3.15;;;15.10;99.90;15.20;100017.00;;;;4882308;28;110677;-65
2024/03/15 07:56:11;;;;;;;3.55;2.95;;;15.60;99.90;15.30;100015.00;;;;4882953;28;87886;-62
2024/03/15 07:58:37;;;;;;;6.30;3.67;;;15.30;99.90;15.40;100017.00;;;;4876522;28;100577;-64
2024/03/15 08:01:07;;;;;;;4.90;3.30;;;15.40;99.90;15.50;100013.00;;;;4880692;28;89071;-64
2024/03/15 08:03:37;;;;;;;5.47;3.25;;;15.40;99.90;15.50;100014.00;;;;4882520;28;87885;-65
2024/03/15 08:06:05;;;;;;;3.28;2.80;;;15.50;99.90;15.60;100006.00;;;;4884799;28;87903;-64
2024/03/15 08:08:34;;;;;;;4.38;3.20;;;15.50;99.90;15.60;100018.00;;;;4880011;28;89036;-64
2024/03/15 08:11:00;;;;;;;4.75;3.30;;;15.70;99.90;15.70;100017.00;;;;4880797;28;88419;-63
2024/03/15 08:13:27;;;;;;;7.25;3.97;;;15.60;99.90;15.70;100011.00;;;;4883285;28;105148;-64
2024/03/15 08:16:18;;;;;;;4.80;2.90;;;15.70;99.90;15.80;100007.00;;;;4875249;28;87252;-64
2024/03/15 08:18:47;;;;;;;4.75;3.13;;;15.70;99.90;15.80;100015.00;;;;4880507;28;87861;-65
2024/03/15 08:21:14;;;;;;;5.47;3.40;;;15.80;99.90;15.90;100022.00;;;;4879827;28;88905;-63
2024/03/15 08:23:40;;;;;;;15.02;7.38;;;15.80;99.90;15.90;100018.00;;;;4876784;28;88960;-63
2024/03/15 08:26:05;;;;;;;5.28;3.45;;;15.90;99.90;16.00;100018.00;;;;4881588;28;107152;-64
2024/03/15 08:28:31;;;;;;;5.32;3.90;;;16.00;99.90;16.20;100025.00;;;;4878507;28;117436;-63
2024/03/15 08:30:57;;;;;;;3.50;2.80;;;16.00;99.90;16.40;100025.00;;;;4882154;28;117333;-64
2024/03/15 08:33:23;;;;;;;5.70;3.60;;;16.30;99.90;16.50;100022.00;;;;4878494;28;110416;-63
2024/03/15 08:35:49;;;;;;;5.05;2.90;;;16.40;99.90;16.70;100035.00;;;;4886164;28;87914;-64
2024/03/15 08:38:14;;;;;;;4.53;3.15;;;16.60;99.90;16.80;100018.00;;;;4879184;28;88763;-64
2024/03/15 08:40:40;;;;;;;3.92;3.15;;;16.70;99.90;16.80;100019.00;;;;4881133;28;88634;-64
2024/03/15 08:43:08;;;;;;;4.32;2.88;;;16.80;99.90;16.80;100018.00;;;;4883593;28;108827;-63
2024/03/15 08:45:34;;;;;;;4.88;2.88;;;16.70;99.90;16.80;100022.00;;;;4883236;28;87932;-63
2024/03/15 08:48:00;;;;;;;5.13;3.90;;;16.70;99.90;16.80;100013.00;;;;4876352;28;89369;-64
2024/03/15 08:50:32;;;;;;;5.35;3.38;;;16.80;99.90;16.80;100016.00;;;;4875152;28;89654;-64
2024/03/15 08:53:03;;;;;;;5.63;2.83;;;16.70;99.90;16.70;100023.00;;;;4877286;28;87723;-64
2024/03/15 08:55:29;;;;;;;3.78;2.90;;;16.70;99.90;16.80;100013.00;;;;4878053;28;87812;-63
2024/03/15 08:57:54;;;;;;;5.32;3.22;;;16.70;99.90;16.80;100023.00;;;;4885980;28;97015;-64
2024/03/15 09:00:20;;;;;;;4.97;3.13;;;16.80;99.90;16.80;100021.00;;;;4876865;28;109930;-64
2024/03/15 09:02:46;;;;;;;6.43;3.45;;;16.70;99.90;16.90;100021.00;;;;4876579;28;88120;-64
2024/03/15 09:05:12;;;;;;;3.88;3.15;;;16.80;99.90;16.90;100013.00;;;;4879226;28;106810;-64
2024/03/15 09:07:38;;;;;;;2.92;1.90;;;16.90;99.90;17.00;100015.00;;;;4878857;28;99044;-64
2024/03/15 09:10:15;;;;;;;5.78;3.03;;;16.90;99.90;17.10;100021.00;;;;4878048;28;88457;-64
2024/03/15 09:12:44;;;;;;;3.17;2.88;;;17.00;99.90;17.10;100021.00;;;;4877714;28;88873;-65
2024/03/15 09:15:18;;;;;;;8.02;3.58;;;17.10;99.90;17.10;100026.00;;;;4879520;28;87988;-64
2024/03/15 09:17:44;;;;;;;4.68;3.13;;;17.10;99.90;17.20;100026.00;;;;4880930;28;88336;-65
2024/03/15 09:20:33;;;;;;;5.25;3.35;;;17.10;99.90;17.20;100032.00;;;;4877645;28;115902;-64
2024/03/15 09:23:01;;;;;;;5.15;3.58;;;17.20;99.60;17.10;100024.00;;;;4882343;28;88082;-64
2024/03/15 09:25:29;;;;;;;4.35;3.22;;;17.10;99.50;17.00;100030.00;;;;4881829;28;88060;-64
2024/03/15 09:27:55;;;;;;;4.65;2.53;;;17.00;99.90;17.10;100023.00;;;;4874448;28;87873;-64
2024/03/15 09:30:36;;;;;;;4.20;3.42;;;17.10;99.90;17.20;100030.00;;;;4877265;28;89782;-64
2024/03/15 09:33:03;;;;;;;4.65;3.15;;;17.10;99.90;17.40;100024.00;;;;4878770;28;88749;-65
2024/03/15 09:35:31;;;;;;;5.22;3.20;;;17.30;99.90;17.50;100039.00;;;;4881018;28;87796;-63
2024/03/15 09:37:57;;;;;;;3.72;3.22;;;17.40;99.70;17.60;100040.00;;;;4875935;28;89661;-63
2024/03/15 09:40:25;;;;;;;6.68;4.25;;;17.40;99.40;17.70;100029.00;;;;4873980;28;91832;-64
2024/03/15 09:42:53;;;;;;;5.55;2.95;;;17.50;98.70;17.70;100027.00;;;;4878449;28;87973;-64
2024/03/15 09:45:26;;;;;;;8.52;3.28;;;17.60;98.60;17.80;100012.00;;;;4875077;28;87843;-64
2024/03/15 09:47:53;;;;;;;5.25;3.28;;;17.70;98.60;17.80;100018.00;;;;4877186;28;89233;-63
2024/03/15 09:50:24;;;;;;;5.10;3.67;;;17.70;98.50;17.90;100018.00;;;;4877499;28;88790;-63
2024/03/15 09:52:53;;;;;;;2.83;2.33;;;17.80;98.50;18.00;100016.00;;;;4879277;28;87950;-64
2024/03/15 09:55:21;;;;;;;5.82;3.90;;;17.90;98.20;18.20;100022.00;;;;4880045;28;89063;-64
2024/03/15 09:57:49;;;;;;;6.32;3.33;;;18.00;98.30;18.30;100010.00;;;;4872775;28;88825;-64
2024/03/15 10:00:21;;;;;;;5.47;3.40;;;18.10;97.90;18.30;100015.00;;;;4877580;28;88318;-65
2024/03/15 10:02:48;;;;;;;4.57;2.80;;;18.20;97.40;18.30;100012.00;;;;4880390;28;88888;-63
2024/03/15 10:05:15;;;;;;;5.40;3.35;;;18.20;96.90;18.20;100010.00;;;;4881132;28;87581;-64
2024/03/15 10:07:41;;;;;;;5.28;3.28;;;18.20;97.30;18.10;100019.00;;;;4879218;28;100982;-64
2024/03/15 10:10:12;;;;;;;4.70;2.92;;;18.10;97.50;18.20;100026.00;;;;4877740;28;108212;-64
2024/03/15 10:12:44;;;;;;;5.82;3.70;;;18.10;97.60;18.20;100025.00;;;;4881584;28;87860;-64
2024/03/15 10:15:14;;;;;;;4.07;3.17;;;18.00;97.60;18.20;100031.00;;;;4879842;28;87855;-64
2024/03/15 10:17:46;;;;;;;5.20;3.33;;;18.20;97.40;18.10;100019.00;;;;4881521;28;88491;-65
2024/03/15 10:20:19;;;;;;;5.80;3.65;;;18.10;96.90;18.00;100026.00;;;;4883108;28;88287;-64
2024/03/15 10:22:48;;;;;;;8.57;4.05;;;18.00;97.10;18.00;100022.00;;;;4878866;28;87993;-63
2024/03/15 10:25:18;;;;;;;6.55;2.75;;;17.90;97.40;17.90;100029.00;;;;4886356;28;87771;-63
2024/03/15 10:27:44;;;;;;;9.68;3.13;;;17.90;97.30;17.90;100017.00;;;;4884402;28;88908;-62
2024/03/15 10:30:14;;;;;;;4.25;3.20;;;17.80;97.50;18.00;100028.00;;;;4877132;28;93205;-65
2024/03/15 10:32:41;;;;;;;4.88;2.72;;;17.90;97.60;18.10;100019.00;;;;4883816;28;87783;-63
2024/03/15 10:35:15;;;;;;;3.95;2.75;;;18.00;97.90;18.30;100011.00;;;;4876410;28;87900;-64
2024/03/15 10:37:45;;;;;;;4.40;2.70;;;18.20;97.80;18.50;100015.00;;;;4882439;28;88727;-65
2024/03/15 10:40:22;;;;;;;6.88;3.80;;;18.30;97.50;18.80;100007.00;;;;4878248;28;103663;-65
2024/03/15 10:42:52;;;;;;;3.60;2.88;;;18.60;97.70;19.00;100013.00;;;;4873698;28;87732;-62
2024/03/15 10:45:24;;;;;;;3.65;2.42;;;18.80;96.90;19.20;100003.00;;;;4878149;28;99249;-63
2024/03/15 10:47:51;;;;;;;6.25;2.67;;;19.00;96.90;19.30;100002.00;;;;4879426;28;87953;-63
2024/03/15 10:50:23;;;;;;;3.67;2.83;;;19.10;96.40;19.30;100015.00;;;;4875977;28;87898;-63
2024/03/15 10:52:53;;;;;;;3.53;2.63;;;19.20;95.40;19.20;100000.00;;;;4878295;28;99543;-62
2024/03/15 10:55:24;;;;;;;4.72;3.17;;;19.10;95.30;19.10;99996.00;;;;4877199;28;88100;-63